sensor_id;sensor_type;location;lat;lon;timestamp;P1;durP1;ratioP1;P2;durP2;ratioP2
16957;SDS011;8595;52.542;11.974;2023-07-13T00:02:21;5.47;;;3.65;;
16957;SDS011;8595;52.542;11.974;2023-07-13T00:04:49;6.95;;;3.53;;
16957;SDS011;8595;52.542;11.974;2023-07-13T00:07:17;5.43;;;3.58;;
16957;SDS011;8595;52.542;11.974;2023-07-13T00:09:44;5.13;;;3.45;;
16957;SDS011;8595;52.542;11.974;2023-07-13T00:12:21;4.75;;;3.58;;
16957;SDS011;8595;52.542;11.974;2023-07-13T00:14:49;5.53;;;4.10;;
16957;SDS011;8595;52.542;11.974;2023-07-13T00:17:16;8.05;;;3.80;;
16957;SDS011;8595;52.542;11.974;2023-07-13T00:19:43;5.38;;;3.78;;
16957;SDS011;8595;52.542;11.974;2023-07-13T00:22:12;7.70;;;4.22;;
16957;SDS011;8595;52.542;11.974;2023-07-13T00:24:38;7.90;;;3.92;;
16957;SDS011;8595;52.542;11.974;2023-07-13T00:27:07;4.80;;;3.92;;
16957;SDS011;8595;52.542;11.974;2023-07-13T00:29:34;5.60;;;3.72;;
16957;SDS011;8595;52.542;11.974;2023-07-13T00:32:01;8.77;;;4.30;;
16957;SDS011;8595;52.542;11.974;2023-07-13T00:34:28;4.53;;;4.07;;
16957;SDS011;8595;52.542;11.974;2023-07-13T00:36:55;4.80;;;4.28;;
16957;SDS011;8595;52.542;11.974;2023-07-13T00:39:25;6.50;;;4.60;;
16957;SDS011;8595;52.542;11.974;2023-07-13T00:41:52;4.20;;;3.80;;
16957;SDS011;8595;52.542;11.974;2023-07-13T00:44:19;7.95;;;4.43;;
16957;SDS011;8595;52.542;11.974;2023-07-13T00:46:48;4.22;;;3.83;;
16957;SDS011;8595;52.542;11.974;2023-07-13T00:49:16;6.55;;;4.35;;
16957;SDS011;8595;52.542;11.974;2023-07-13T00:51:46;7.15;;;4.88;;
16957;SDS011;8595;52.542;11.974;2023-07-13T00:54:17;6.28;;;4.13;;
16957;SDS011;8595;52.542;11.974;2023-07-13T00:56:49;7.13;;;4.43;;
16957;SDS011;8595;52.542;11.974;2023-07-13T00:59:18;6.13;;;5.13;;
16957;SDS011;8595;52.542;11.974;2023-07-13T01:01:47;9.10;;;4.20;;
16957;SDS011;8595;52.542;11.974;2023-07-13T01:04:14;5.40;;;4.10;;
16957;SDS011;8595;52.542;11.974;2023-07-13T01:06:42;4.95;;;3.90;;
16957;SDS011;8595;52.542;11.974;2023-07-13T01:09:09;13.57;;;4.63;;
16957;SDS011;8595;52.542;11.974;2023-07-13T01:11:37;7.35;;;4.50;;
16957;SDS011;8595;52.542;11.974;2023-07-13T01:14:06;8.32;;;4.65;;
16957;SDS011;8595;52.542;11.974;2023-07-13T01:16:34;4.72;;;3.85;;
16957;SDS011;8595;52.542;11.974;2023-07-13T01:19:02;5.78;;;4.05;;
16957;SDS011;8595;52.542;11.974;2023-07-13T01:21:36;4.47;;;4.07;;
16957;SDS011;8595;52.542;11.974;2023-07-13T01:24:03;5.63;;;4.88;;
16957;SDS011;8595;52.542;11.974;2023-07-13T01:26:30;5.82;;;4.28;;
16957;SDS011;8595;52.542;11.974;2023-07-13T01:28:57;5.97;;;4.30;;
16957;SDS011;8595;52.542;11.974;2023-07-13T01:31:23;4.53;;;4.10;;
16957;SDS011;8595;52.542;11.974;2023-07-13T01:33:51;6.43;;;4.35;;
16957;SDS011;8595;52.542;11.974;2023-07-13T01:36:18;5.22;;;4.20;;
16957;SDS011;8595;52.542;11.974;2023-07-13T01:38:47;7.53;;;4.95;;
16957;SDS011;8595;52.542;11.974;2023-07-13T01:41:14;7.60;;;4.78;;
16957;SDS011;8595;52.542;11.974;2023-07-13T01:43:41;5.72;;;4.60;;
16957;SDS011;8595;52.542;11.974;2023-07-13T01:46:07;5.47;;;4.57;;
16957;SDS011;8595;52.542;11.974;2023-07-13T01:48:34;6.38;;;4.65;;
16957;SDS011;8595;52.542;11.974;2023-07-13T01:51:01;5.18;;;4.10;;
16957;SDS011;8595;52.542;11.974;2023-07-13T01:53:28;4.90;;;4.40;;
16957;SDS011;8595;52.542;11.974;2023-07-13T01:55:56;7.47;;;4.47;;
16957;SDS011;8595;52.542;11.974;2023-07-13T01:58:23;5.68;;;4.07;;
16957;SDS011;8595;52.542;11.974;2023-07-13T02:00:50;5.60;;;4.85;;
16957;SDS011;8595;52.542;11.974;2023-07-13T02:03:18;6.38;;;4.88;;
16957;SDS011;8595;52.542;11.974;2023-07-13T02:05:45;6.57;;;4.88;;
16957;SDS011;8595;52.542;11.974;2023-07-13T02:08:12;7.50;;;4.68;;
16957;SDS011;8595;52.542;11.974;2023-07-13T02:10:38;5.80;;;5.20;;
16957;SDS011;8595;52.542;11.974;2023-07-13T02:13:07;7.25;;;5.13;;
16957;SDS011;8595;52.542;11.974;2023-07-13T02:15:34;5.80;;;5.20;;
16957;SDS011;8595;52.542;11.974;2023-07-13T02:18:04;7.47;;;5.18;;
16957;SDS011;8595;52.542;11.974;2023-07-13T02:20:31;5.38;;;4.88;;
16957;SDS011;8595;52.542;11.974;2023-07-13T02:22:58;6.70;;;5.70;;
16957;SDS011;8595;52.542;11.974;2023-07-13T02:25:24;9.52;;;5.32;;
16957;SDS011;8595;52.542;11.974;2023-07-13T02:27:51;5.93;;;5.30;;
16957;SDS011;8595;52.542;11.974;2023-07-13T02:30:20;7.35;;;5.80;;
16957;SDS011;8595;52.542;11.974;2023-07-13T02:32:49;8.15;;;6.10;;
16957;SDS011;8595;52.542;11.974;2023-07-13T02:35:16;6.45;;;5.13;;
16957;SDS011;8595;52.542;11.974;2023-07-13T02:37:44;7.00;;;5.22;;
16957;SDS011;8595;52.542;11.974;2023-07-13T02:40:11;8.20;;;5.80;;
16957;SDS011;8595;52.542;11.974;2023-07-13T02:42:38;5.32;;;4.78;;
16957;SDS011;8595;52.542;11.974;2023-07-13T02:45:05;7.68;;;6.03;;
16957;SDS011;8595;52.542;11.974;2023-07-13T02:47:34;9.40;;;5.95;;
16957;SDS011;8595;52.542;11.974;2023-07-13T02:50:01;5.88;;;5.28;;
16957;SDS011;8595;52.542;11.974;2023-07-13T02:52:28;7.57;;;5.53;;
16957;SDS011;8595;52.542;11.974;2023-07-13T02:54:55;9.82;;;6.75;;
16957;SDS011;8595;52.542;11.974;2023-07-13T02:57:22;6.35;;;5.75;;
16957;SDS011;8595;52.542;11.974;2023-07-13T02:59:49;10.73;;;5.97;;
16957;SDS011;8595;52.542;11.974;2023-07-13T03:02:16;9.35;;;5.43;;
16957;SDS011;8595;52.542;11.974;2023-07-13T03:04:44;6.18;;;5.43;;
16957;SDS011;8595;52.542;11.974;2023-07-13T03:07:10;8.05;;;5.60;;
16957;SDS011;8595;52.542;11.974;2023-07-13T03:09:39;9.05;;;6.03;;
16957;SDS011;8595;52.542;11.974;2023-07-13T03:12:06;8.18;;;5.95;;
16957;SDS011;8595;52.542;11.974;2023-07-13T03:14:33;6.20;;;5.40;;
16957;SDS011;8595;52.542;11.974;2023-07-13T03:17:00;7.22;;;5.97;;
16957;SDS011;8595;52.542;11.974;2023-07-13T03:19:26;7.03;;;5.75;;
16957;SDS011;8595;52.542;11.974;2023-07-13T03:21:54;9.65;;;5.55;;
16957;SDS011;8595;52.542;11.974;2023-07-13T03:24:21;7.35;;;5.07;;
16957;SDS011;8595;52.542;11.974;2023-07-13T03:26:50;7.40;;;5.53;;
16957;SDS011;8595;52.542;11.974;2023-07-13T03:29:17;6.60;;;5.72;;
16957;SDS011;8595;52.542;11.974;2023-07-13T03:31:44;8.95;;;5.50;;
16957;SDS011;8595;52.542;11.974;2023-07-13T03:34:11;9.77;;;6.38;;
16957;SDS011;8595;52.542;11.974;2023-07-13T03:36:38;8.05;;;5.78;;
16957;SDS011;8595;52.542;11.974;2023-07-13T03:39:06;6.07;;;5.43;;
16957;SDS011;8595;52.542;11.974;2023-07-13T03:41:34;6.43;;;5.82;;
16957;SDS011;8595;52.542;11.974;2023-07-13T03:44:01;6.95;;;5.40;;
16957;SDS011;8595;52.542;11.974;2023-07-13T03:46:28;7.18;;;5.55;;
16957;SDS011;8595;52.542;11.974;2023-07-13T03:48:56;5.93;;;5.32;;
16957;SDS011;8595;52.542;11.974;2023-07-13T03:51:23;7.35;;;5.63;;
16957;SDS011;8595;52.542;11.974;2023-07-13T03:53:51;10.13;;;5.90;;
16957;SDS011;8595;52.542;11.974;2023-07-13T03:56:19;8.05;;;5.93;;
16957;SDS011;8595;52.542;11.974;2023-07-13T03:58:47;8.32;;;6.03;;
16957;SDS011;8595;52.542;11.974;2023-07-13T04:01:15;7.55;;;5.43;;
16957;SDS011;8595;52.542;11.974;2023-07-13T04:03:42;9.85;;;4.97;;
16957;SDS011;8595;52.542;11.974;2023-07-13T04:06:13;9.30;;;5.68;;
16957;SDS011;8595;52.542;11.974;2023-07-13T04:08:46;7.43;;;5.85;;
16957;SDS011;8595;52.542;11.974;2023-07-13T04:11:16;6.80;;;5.80;;
16957;SDS011;8595;52.542;11.974;2023-07-13T04:13:45;7.35;;;5.70;;
16957;SDS011;8595;52.542;11.974;2023-07-13T04:16:12;15.52;;;6.03;;
16957;SDS011;8595;52.542;11.974;2023-07-13T04:18:39;8.20;;;5.45;;
16957;SDS011;8595;52.542;11.974;2023-07-13T04:21:07;7.40;;;5.90;;
16957;SDS011;8595;52.542;11.974;2023-07-13T04:23:34;11.27;;;5.40;;
16957;SDS011;8595;52.542;11.974;2023-07-13T04:26:01;7.18;;;5.97;;
16957;SDS011;8595;52.542;11.974;2023-07-13T04:28:28;8.95;;;6.72;;
16957;SDS011;8595;52.542;11.974;2023-07-13T04:30:57;6.97;;;5.63;;
16957;SDS011;8595;52.542;11.974;2023-07-13T04:33:24;6.72;;;5.05;;
16957;SDS011;8595;52.542;11.974;2023-07-13T04:35:51;7.45;;;5.93;;
16957;SDS011;8595;52.542;11.974;2023-07-13T04:38:19;9.40;;;6.80;;
16957;SDS011;8595;52.542;11.974;2023-07-13T04:40:47;10.40;;;6.00;;
16957;SDS011;8595;52.542;11.974;2023-07-13T04:43:14;10.90;;;6.28;;
16957;SDS011;8595;52.542;11.974;2023-07-13T04:45:40;7.93;;;6.72;;
16957;SDS011;8595;52.542;11.974;2023-07-13T04:48:10;8.48;;;5.82;;
16957;SDS011;8595;52.542;11.974;2023-07-13T04:50:37;9.88;;;5.88;;
16957;SDS011;8595;52.542;11.974;2023-07-13T04:53:04;6.72;;;5.45;;
16957;SDS011;8595;52.542;11.974;2023-07-13T04:55:31;11.38;;;6.20;;
16957;SDS011;8595;52.542;11.974;2023-07-13T04:57:58;7.85;;;5.35;;
16957;SDS011;8595;52.542;11.974;2023-07-13T05:00:25;6.20;;;5.40;;
16957;SDS011;8595;52.542;11.974;2023-07-13T05:02:53;7.15;;;5.28;;
16957;SDS011;8595;52.542;11.974;2023-07-13T05:05:22;6.63;;;5.60;;
16957;SDS011;8595;52.542;11.974;2023-07-13T05:07:49;7.47;;;5.60;;
16957;SDS011;8595;52.542;11.974;2023-07-13T05:10:16;9.10;;;5.50;;
16957;SDS011;8595;52.542;11.974;2023-07-13T05:12:42;11.80;;;6.68;;
16957;SDS011;8595;52.542;11.974;2023-07-13T05:15:10;8.55;;;5.47;;
16957;SDS011;8595;52.542;11.974;2023-07-13T05:17:37;7.53;;;4.88;;
16957;SDS011;8595;52.542;11.974;2023-07-13T05:20:05;6.40;;;5.32;;
16957;SDS011;8595;52.542;11.974;2023-07-13T05:22:36;7.03;;;5.43;;
16957;SDS011;8595;52.542;11.974;2023-07-13T05:25:04;6.90;;;5.10;;
16957;SDS011;8595;52.542;11.974;2023-07-13T05:27:32;8.30;;;5.90;;
16957;SDS011;8595;52.542;11.974;2023-07-13T05:29:59;6.50;;;5.35;;
16957;SDS011;8595;52.542;11.974;2023-07-13T05:32:26;11.98;;;5.88;;
16957;SDS011;8595;52.542;11.974;2023-07-13T05:34:53;8.10;;;5.50;;
16957;SDS011;8595;52.542;11.974;2023-07-13T05:37:20;7.60;;;5.30;;
16957;SDS011;8595;52.542;11.974;2023-07-13T05:39:48;7.40;;;5.63;;
16957;SDS011;8595;52.542;11.974;2023-07-13T05:42:15;8.32;;;6.25;;
16957;SDS011;8595;52.542;11.974;2023-07-13T05:44:42;7.53;;;5.35;;
16957;SDS011;8595;52.542;11.974;2023-07-13T05:47:08;6.03;;;5.35;;
16957;SDS011;8595;52.542;11.974;2023-07-13T05:49:35;6.97;;;5.53;;
16957;SDS011;8595;52.542;11.974;2023-07-13T05:52:02;8.23;;;5.40;;
16957;SDS011;8595;52.542;11.974;2023-07-13T05:54:29;8.52;;;5.20;;
16957;SDS011;8595;52.542;11.974;2023-07-13T05:56:57;7.25;;;4.75;;
16957;SDS011;8595;52.542;11.974;2023-07-13T05:59:24;7.30;;;5.65;;
16957;SDS011;8595;52.542;11.974;2023-07-13T06:01:51;11.82;;;5.00;;
16957;SDS011;8595;52.542;11.974;2023-07-13T06:04:18;10.75;;;5.80;;
16957;SDS011;8595;52.542;11.974;2023-07-13T06:06:45;8.32;;;5.82;;
16957;SDS011;8595;52.542;11.974;2023-07-13T06:09:11;10.40;;;5.55;;
16957;SDS011;8595;52.542;11.974;2023-07-13T06:11:38;7.57;;;4.75;;
16957;SDS011;8595;52.542;11.974;2023-07-13T06:14:06;7.55;;;5.72;;
16957;SDS011;8595;52.542;11.974;2023-07-13T06:16:33;9.63;;;5.10;;
16957;SDS011;8595;52.542;11.974;2023-07-13T06:19:00;8.93;;;4.78;;
16957;SDS011;8595;52.542;11.974;2023-07-13T06:21:27;11.50;;;5.28;;
16957;SDS011;8595;52.542;11.974;2023-07-13T06:23:54;9.90;;;4.38;;
16957;SDS011;8595;52.542;11.974;2023-07-13T06:26:20;7.65;;;5.22;;
16957;SDS011;8595;52.542;11.974;2023-07-13T06:28:47;8.48;;;4.90;;
16957;SDS011;8595;52.542;11.974;2023-07-13T06:31:15;8.68;;;5.45;;
16957;SDS011;8595;52.542;11.974;2023-07-13T06:33:42;11.10;;;6.13;;
16957;SDS011;8595;52.542;11.974;2023-07-13T06:36:09;13.25;;;5.55;;
16957;SDS011;8595;52.542;11.974;2023-07-13T06:38:36;8.70;;;5.25;;
16957;SDS011;8595;52.542;11.974;2023-07-13T06:41:04;11.88;;;4.78;;
16957;SDS011;8595;52.542;11.974;2023-07-13T06:43:31;9.52;;;5.55;;
16957;SDS011;8595;52.542;11.974;2023-07-13T06:45:58;13.27;;;6.45;;
16957;SDS011;8595;52.542;11.974;2023-07-13T06:48:27;10.27;;;4.90;;
16957;SDS011;8595;52.542;11.974;2023-07-13T06:50:54;6.85;;;4.53;;
16957;SDS011;8595;52.542;11.974;2023-07-13T06:53:21;6.63;;;4.53;;
16957;SDS011;8595;52.542;11.974;2023-07-13T06:55:48;6.53;;;4.82;;
16957;SDS011;8595;52.542;11.974;2023-07-13T06:58:16;11.27;;;5.28;;
16957;SDS011;8595;52.542;11.974;2023-07-13T07:00:45;6.78;;;4.80;;
16957;SDS011;8595;52.542;11.974;2023-07-13T07:03:12;14.05;;;5.10;;
16957;SDS011;8595;52.542;11.974;2023-07-13T07:05:40;12.20;;;4.80;;
16957;SDS011;8595;52.542;11.974;2023-07-13T07:08:07;5.78;;;4.20;;
16957;SDS011;8595;52.542;11.974;2023-07-13T07:10:34;7.15;;;4.57;;
16957;SDS011;8595;52.542;11.974;2023-07-13T07:13:01;5.78;;;4.07;;
16957;SDS011;8595;52.542;11.974;2023-07-13T07:15:29;6.25;;;3.63;;
16957;SDS011;8595;52.542;11.974;2023-07-13T07:17:55;5.68;;;3.88;;
16957;SDS011;8595;52.542;11.974;2023-07-13T07:20:22;6.85;;;3.30;;
16957;SDS011;8595;52.542;11.974;2023-07-13T07:22:50;7.97;;;3.20;;
16957;SDS011;8595;52.542;11.974;2023-07-13T07:25:17;8.13;;;3.58;;
16957;SDS011;8595;52.542;11.974;2023-07-13T07:27:45;9.85;;;3.60;;
16957;SDS011;8595;52.542;11.974;2023-07-13T07:30:12;6.85;;;3.53;;
16957;SDS011;8595;52.542;11.974;2023-07-13T07:32:40;4.10;;;3.40;;
16957;SDS011;8595;52.542;11.974;2023-07-13T07:35:08;5.63;;;3.33;;
16957;SDS011;8595;52.542;11.974;2023-07-13T07:37:35;10.65;;;3.20;;
16957;SDS011;8595;52.542;11.974;2023-07-13T07:40:04;6.72;;;3.17;;
16957;SDS011;8595;52.542;11.974;2023-07-13T07:42:31;7.60;;;2.80;;
16957;SDS011;8595;52.542;11.974;2023-07-13T07:44:58;6.25;;;2.65;;
16957;SDS011;8595;52.542;11.974;2023-07-13T07:47:26;5.03;;;2.30;;
16957;SDS011;8595;52.542;11.974;2023-07-13T07:49:53;8.00;;;3.03;;
16957;SDS011;8595;52.542;11.974;2023-07-13T07:52:19;5.85;;;2.70;;
16957;SDS011;8595;52.542;11.974;2023-07-13T07:54:47;5.18;;;2.47;;
16957;SDS011;8595;52.542;11.974;2023-07-13T07:57:15;7.70;;;2.60;;
16957;SDS011;8595;52.542;11.974;2023-07-13T07:59:42;4.50;;;2.40;;
16957;SDS011;8595;52.542;11.974;2023-07-13T08:02:09;3.38;;;2.63;;
16957;SDS011;8595;52.542;11.974;2023-07-13T08:04:36;6.05;;;2.58;;
16957;SDS011;8595;52.542;11.974;2023-07-13T08:07:03;4.88;;;2.33;;
16957;SDS011;8595;52.542;11.974;2023-07-13T08:09:31;6.53;;;2.40;;
16957;SDS011;8595;52.542;11.974;2023-07-13T08:11:58;10.02;;;2.65;;
16957;SDS011;8595;52.542;11.974;2023-07-13T08:14:27;6.22;;;2.10;;
16957;SDS011;8595;52.542;11.974;2023-07-13T08:16:54;8.30;;;2.70;;
16957;SDS011;8595;52.542;11.974;2023-07-13T08:19:21;5.53;;;2.42;;
16957;SDS011;8595;52.542;11.974;2023-07-13T08:21:48;6.63;;;2.78;;
16957;SDS011;8595;52.542;11.974;2023-07-13T08:24:14;5.72;;;2.60;;
16957;SDS011;8595;52.542;11.974;2023-07-13T08:26:43;9.70;;;3.03;;
16957;SDS011;8595;52.542;11.974;2023-07-13T08:29:11;8.52;;;2.72;;
16957;SDS011;8595;52.542;11.974;2023-07-13T08:31:39;6.07;;;3.03;;
16957;SDS011;8595;52.542;11.974;2023-07-13T08:34:05;8.05;;;3.30;;
16957;SDS011;8595;52.542;11.974;2023-07-13T08:36:32;7.13;;;3.05;;
16957;SDS011;8595;52.542;11.974;2023-07-13T08:38:59;6.50;;;2.90;;
16957;SDS011;8595;52.542;11.974;2023-07-13T08:41:26;8.65;;;3.40;;
16957;SDS011;8595;52.542;11.974;2023-07-13T08:43:55;6.65;;;3.47;;
16957;SDS011;8595;52.542;11.974;2023-07-13T08:46:26;8.25;;;3.60;;
16957;SDS011;8595;52.542;11.974;2023-07-13T08:49:01;8.13;;;3.45;;
16957;SDS011;8595;52.542;11.974;2023-07-13T08:51:34;6.93;;;3.33;;
16957;SDS011;8595;52.542;11.974;2023-07-13T08:54:09;6.10;;;3.63;;
16957;SDS011;8595;52.542;11.974;2023-07-13T08:56:43;12.80;;;4.10;;
16957;SDS011;8595;52.542;11.974;2023-07-13T08:59:13;4.10;;;3.13;;
16957;SDS011;8595;52.542;11.974;2023-07-13T09:01:49;7.13;;;4.15;;
16957;SDS011;8595;52.542;11.974;2023-07-13T09:04:29;9.40;;;4.10;;
16957;SDS011;8595;52.542;11.974;2023-07-13T09:07:03;6.93;;;4.00;;
16957;SDS011;8595;52.542;11.974;2023-07-13T09:09:41;7.50;;;3.58;;
16957;SDS011;8595;52.542;11.974;2023-07-13T09:12:18;7.63;;;3.70;;
16957;SDS011;8595;52.542;11.974;2023-07-13T09:14:51;8.25;;;3.28;;
16957;SDS011;8595;52.542;11.974;2023-07-13T09:17:22;4.93;;;2.38;;
16957;SDS011;8595;52.542;11.974;2023-07-13T09:19:56;12.32;;;3.40;;
16957;SDS011;8595;52.542;11.974;2023-07-13T09:22:25;8.15;;;2.80;;
16957;SDS011;8595;52.542;11.974;2023-07-13T09:24:55;6.18;;;3.67;;
16957;SDS011;8595;52.542;11.974;2023-07-13T09:27:29;9.45;;;4.40;;
16957;SDS011;8595;52.542;11.974;2023-07-13T09:30:02;9.00;;;4.13;;
16957;SDS011;8595;52.542;11.974;2023-07-13T09:32:38;4.88;;;3.40;;
16957;SDS011;8595;52.542;11.974;2023-07-13T09:35:10;7.20;;;3.60;;
16957;SDS011;8595;52.542;11.974;2023-07-13T09:37:38;9.70;;;4.55;;
16957;SDS011;8595;52.542;11.974;2023-07-13T09:40:08;6.93;;;3.83;;
16957;SDS011;8595;52.542;11.974;2023-07-13T09:42:41;4.93;;;3.47;;
16957;SDS011;8595;52.542;11.974;2023-07-13T09:45:08;10.07;;;3.80;;
16957;SDS011;8595;52.542;11.974;2023-07-13T09:47:38;6.50;;;3.53;;
16957;SDS011;8595;52.542;11.974;2023-07-13T09:50:08;7.97;;;4.20;;
16957;SDS011;8595;52.542;11.974;2023-07-13T09:52:43;9.35;;;4.22;;
16957;SDS011;8595;52.542;11.974;2023-07-13T09:57:54;10.32;;;3.53;;
16957;SDS011;8595;52.542;11.974;2023-07-13T10:00:22;13.05;;;4.00;;
16957;SDS011;8595;52.542;11.974;2023-07-13T10:03:01;7.82;;;3.38;;
16957;SDS011;8595;52.542;11.974;2023-07-13T10:05:42;4.70;;;3.00;;
16957;SDS011;8595;52.542;11.974;2023-07-13T10:08:17;11.32;;;3.42;;
16957;SDS011;8595;52.542;11.974;2023-07-13T10:10:46;4.03;;;2.58;;
16957;SDS011;8595;52.542;11.974;2023-07-13T10:13:32;4.18;;;2.78;;
16957;SDS011;8595;52.542;11.974;2023-07-13T10:16:02;6.47;;;2.58;;
16957;SDS011;8595;52.542;11.974;2023-07-13T10:18:31;7.45;;;3.40;;
16957;SDS011;8595;52.542;11.974;2023-07-13T10:21:13;7.50;;;3.15;;
16957;SDS011;8595;52.542;11.974;2023-07-13T10:23:42;7.93;;;2.58;;
16957;SDS011;8595;52.542;11.974;2023-07-13T10:26:12;8.57;;;2.83;;
16957;SDS011;8595;52.542;11.974;2023-07-13T10:28:42;5.13;;;2.53;;
16957;SDS011;8595;52.542;11.974;2023-07-13T10:31:14;12.25;;;2.97;;
16957;SDS011;8595;52.542;11.974;2023-07-13T10:33:42;5.03;;;2.80;;
16957;SDS011;8595;52.542;11.974;2023-07-13T10:36:17;7.63;;;2.90;;
16957;SDS011;8595;52.542;11.974;2023-07-13T10:38:50;8.93;;;2.65;;
16957;SDS011;8595;52.542;11.974;2023-07-13T10:41:20;7.22;;;3.15;;
16957;SDS011;8595;52.542;11.974;2023-07-13T10:43:49;10.40;;;3.20;;
16957;SDS011;8595;52.542;11.974;2023-07-13T10:46:19;4.25;;;2.70;;
16957;SDS011;8595;52.542;11.974;2023-07-13T10:48:49;7.47;;;3.05;;
16957;SDS011;8595;52.542;11.974;2023-07-13T10:51:20;7.32;;;3.25;;
16957;SDS011;8595;52.542;11.974;2023-07-13T10:56:38;4.28;;;2.70;;
16957;SDS011;8595;52.542;11.974;2023-07-13T10:59:09;6.00;;;3.10;;
16957;SDS011;8595;52.542;11.974;2023-07-13T11:01:40;5.82;;;2.95;;
16957;SDS011;8595;52.542;11.974;2023-07-13T11:04:18;7.10;;;2.90;;
16957;SDS011;8595;52.542;11.974;2023-07-13T11:06:49;4.90;;;3.17;;
16957;SDS011;8595;52.542;11.974;2023-07-13T11:09:30;9.63;;;2.95;;
16957;SDS011;8595;52.542;11.974;2023-07-13T11:12:07;7.13;;;2.58;;
16957;SDS011;8595;52.542;11.974;2023-07-13T11:14:42;5.35;;;2.45;;
16957;SDS011;8595;52.542;11.974;2023-07-13T11:20:22;11.25;;;2.42;;
16957;SDS011;8595;52.542;11.974;2023-07-13T11:23:09;4.30;;;2.40;;
16957;SDS011;8595;52.542;11.974;2023-07-13T11:25:44;4.90;;;2.35;;
16957;SDS011;8595;52.542;11.974;2023-07-13T11:28:22;6.32;;;2.40;;
16957;SDS011;8595;52.542;11.974;2023-07-13T11:30:59;4.45;;;2.35;;
16957;SDS011;8595;52.542;11.974;2023-07-13T11:33:53;3.78;;;2.05;;
16957;SDS011;8595;52.542;11.974;2023-07-13T11:36:27;2.92;;;2.00;;
16957;SDS011;8595;52.542;11.974;2023-07-13T11:39:08;6.22;;;2.22;;
16957;SDS011;8595;52.542;11.974;2023-07-13T11:41:45;5.30;;;2.20;;
16957;SDS011;8595;52.542;11.974;2023-07-13T11:44:17;6.07;;;2.10;;
16957;SDS011;8595;52.542;11.974;2023-07-13T11:46:46;7.40;;;2.20;;
16957;SDS011;8595;52.542;11.974;2023-07-13T11:49:15;5.28;;;1.83;;
16957;SDS011;8595;52.542;11.974;2023-07-13T11:51:43;3.83;;;1.80;;
16957;SDS011;8595;52.542;11.974;2023-07-13T11:54:16;4.05;;;1.50;;
16957;SDS011;8595;52.542;11.974;2023-07-13T11:56:49;5.80;;;1.67;;
16957;SDS011;8595;52.542;11.974;2023-07-13T11:59:16;3.10;;;1.58;;
16957;SDS011;8595;52.542;11.974;2023-07-13T12:01:45;3.65;;;1.48;;
16957;SDS011;8595;52.542;11.974;2023-07-13T12:04:18;4.55;;;1.40;;
16957;SDS011;8595;52.542;11.974;2023-07-13T12:06:52;3.13;;;1.60;;
16957;SDS011;8595;52.542;11.974;2023-07-13T12:09:23;3.65;;;1.65;;
16957;SDS011;8595;52.542;11.974;2023-07-13T12:11:55;4.53;;;1.85;;
16957;SDS011;8595;52.542;11.974;2023-07-13T12:14:23;4.95;;;1.75;;
16957;SDS011;8595;52.542;11.974;2023-07-13T12:16:51;4.63;;;1.40;;
16957;SDS011;8595;52.542;11.974;2023-07-13T12:19:20;3.83;;;1.30;;
16957;SDS011;8595;52.542;11.974;2023-07-13T12:21:49;2.58;;;1.50;;
16957;SDS011;8595;52.542;11.974;2023-07-13T12:24:20;5.97;;;1.45;;
16957;SDS011;8595;52.542;11.974;2023-07-13T12:26:53;3.13;;;1.40;;
16957;SDS011;8595;52.542;11.974;2023-07-13T12:29:21;2.83;;;1.33;;
16957;SDS011;8595;52.542;11.974;2023-07-13T12:31:48;3.20;;;1.38;;
16957;SDS011;8595;52.542;11.974;2023-07-13T12:34:18;3.72;;;1.48;;
16957;SDS011;8595;52.542;11.974;2023-07-13T12:36:46;2.30;;;1.88;;
16957;SDS011;8595;52.542;11.974;2023-07-13T12:39:16;5.05;;;1.42;;
16957;SDS011;8595;52.542;11.974;2023-07-13T12:41:47;4.88;;;1.35;;
16957;SDS011;8595;52.542;11.974;2023-07-13T12:44:15;6.13;;;1.45;;
16957;SDS011;8595;52.542;11.974;2023-07-13T12:46:53;4.95;;;1.60;;
16957;SDS011;8595;52.542;11.974;2023-07-13T12:49:23;4.82;;;1.55;;
16957;SDS011;8595;52.542;11.974;2023-07-13T12:51:56;3.30;;;1.50;;
16957;SDS011;8595;52.542;11.974;2023-07-13T12:54:25;5.50;;;1.70;;
16957;SDS011;8595;52.542;11.974;2023-07-13T12:56:55;4.95;;;1.80;;
16957;SDS011;8595;52.542;11.974;2023-07-13T12:59:23;5.80;;;1.73;;
16957;SDS011;8595;52.542;11.974;2023-07-13T13:01:55;4.68;;;1.50;;
16957;SDS011;8595;52.542;11.974;2023-07-13T13:04:22;4.18;;;1.83;;
16957;SDS011;8595;52.542;11.974;2023-07-13T13:06:49;4.70;;;1.85;;
16957;SDS011;8595;52.542;11.974;2023-07-13T13:09:27;3.05;;;1.55;;
16957;SDS011;8595;52.542;11.974;2023-07-13T13:11:55;2.72;;;1.73;;
16957;SDS011;8595;52.542;11.974;2023-07-13T13:14:22;7.10;;;1.40;;
16957;SDS011;8595;52.542;11.974;2023-07-13T13:16:49;3.28;;;1.45;;
16957;SDS011;8595;52.542;11.974;2023-07-13T13:19:19;1.75;;;1.15;;
16957;SDS011;8595;52.542;11.974;2023-07-13T13:21:48;3.95;;;1.88;;
16957;SDS011;8595;52.542;11.974;2023-07-13T13:24:19;5.20;;;1.70;;
16957;SDS011;8595;52.542;11.974;2023-07-13T13:26:47;3.28;;;1.70;;
16957;SDS011;8595;52.542;11.974;2023-07-13T13:29:17;4.78;;;2.08;;
16957;SDS011;8595;52.542;11.974;2023-07-13T13:31:45;3.20;;;1.50;;
16957;SDS011;8595;52.542;11.974;2023-07-13T13:34:13;3.20;;;1.58;;
16957;SDS011;8595;52.542;11.974;2023-07-13T13:36:41;2.25;;;1.30;;
16957;SDS011;8595;52.542;11.974;2023-07-13T13:39:18;3.22;;;1.60;;
16957;SDS011;8595;52.542;11.974;2023-07-13T13:41:47;8.15;;;1.92;;
16957;SDS011;8595;52.542;11.974;2023-07-13T13:44:16;10.35;;;1.80;;
16957;SDS011;8595;52.542;11.974;2023-07-13T13:46:44;3.58;;;1.92;;
16957;SDS011;8595;52.542;11.974;2023-07-13T13:49:14;3.65;;;1.70;;
16957;SDS011;8595;52.542;11.974;2023-07-13T13:51:42;3.72;;;1.58;;
16957;SDS011;8595;52.542;11.974;2023-07-13T13:54:10;3.38;;;1.67;;
16957;SDS011;8595;52.542;11.974;2023-07-13T13:56:39;2.90;;;1.50;;
16957;SDS011;8595;52.542;11.974;2023-07-13T13:59:07;5.30;;;2.25;;
16957;SDS011;8595;52.542;11.974;2023-07-13T14:01:36;3.22;;;1.80;;
16957;SDS011;8595;52.542;11.974;2023-07-13T14:04:03;4.15;;;1.48;;
16957;SDS011;8595;52.542;11.974;2023-07-13T14:06:31;2.10;;;1.48;;
16957;SDS011;8595;52.542;11.974;2023-07-13T14:08:59;3.35;;;1.77;;
16957;SDS011;8595;52.542;11.974;2023-07-13T14:11:27;2.35;;;1.30;;
16957;SDS011;8595;52.542;11.974;2023-07-13T14:13:56;4.55;;;1.85;;
16957;SDS011;8595;52.542;11.974;2023-07-13T14:16:26;5.43;;;2.05;;
16957;SDS011;8595;52.542;11.974;2023-07-13T14:18:59;6.70;;;1.70;;
16957;SDS011;8595;52.542;11.974;2023-07-13T14:21:26;4.95;;;1.85;;
16957;SDS011;8595;52.542;11.974;2023-07-13T14:23:54;2.42;;;1.88;;
16957;SDS011;8595;52.542;11.974;2023-07-13T14:26:22;6.18;;;2.00;;
16957;SDS011;8595;52.542;11.974;2023-07-13T14:28:52;6.00;;;1.80;;
16957;SDS011;8595;52.542;11.974;2023-07-13T14:31:21;7.57;;;2.10;;
16957;SDS011;8595;52.542;11.974;2023-07-13T14:33:49;2.75;;;1.70;;
16957;SDS011;8595;52.542;11.974;2023-07-13T14:36:23;2.70;;;1.65;;
16957;SDS011;8595;52.542;11.974;2023-07-13T14:38:54;5.85;;;2.00;;
16957;SDS011;8595;52.542;11.974;2023-07-13T14:41:22;4.88;;;1.90;;
16957;SDS011;8595;52.542;11.974;2023-07-13T14:43:49;5.15;;;1.90;;
16957;SDS011;8595;52.542;11.974;2023-07-13T14:46:18;3.03;;;1.88;;
16957;SDS011;8595;52.542;11.974;2023-07-13T14:48:52;4.00;;;1.92;;
16957;SDS011;8595;52.542;11.974;2023-07-13T14:51:25;6.93;;;1.80;;
16957;SDS011;8595;52.542;11.974;2023-07-13T14:53:52;2.65;;;1.60;;
16957;SDS011;8595;52.542;11.974;2023-07-13T14:56:19;1.73;;;1.50;;
16957;SDS011;8595;52.542;11.974;2023-07-13T14:58:45;3.83;;;1.63;;
16957;SDS011;8595;52.542;11.974;2023-07-13T15:01:12;5.47;;;2.00;;
16957;SDS011;8595;52.542;11.974;2023-07-13T15:03:43;2.58;;;1.63;;
16957;SDS011;8595;52.542;11.974;2023-07-13T15:06:11;4.72;;;2.10;;